Time;durP1;ratioP1;P1;durP2;ratioP2;P2;SDS_P1;SDS_P2;PMS_P1;PMS_P2;Temp;Humidity;BMP_temperature;BMP_pressure;BME280_temperature;BME280_humidity;BME280_pressure;Samples;Min_cycle;Max_cycle;Signal;HPM_P1;HPM_P2
2023/04/10 00:02:19;;;;;;;13.43;8.43;;;9.00;99.90;;;;;;5052728;28;20040;-91
2023/04/10 00:04:44;;;;;;;13.65;9.15;;;9.00;99.90;;;;;;5053691;28;20110;-91
2023/04/10 00:07:10;;;;;;;13.60;8.38;;;8.90;99.90;;;;;;5052867;28;20048;-92
2023/04/10 00:09:36;;;;;;;14.63;9.60;;;8.90;99.90;;;;;;5053034;28;20028;-92
2023/04/10 00:12:01;;;;;;;15.52;9.25;;;8.90;99.90;;;;;;5053348;28;20027;-91
2023/04/10 00:14:27;;;;;;;16.23;9.38;;;8.80;99.90;;;;;;5053273;28;20098;-90
2023/04/10 00:16:52;;;;;;;14.60;9.52;;;8.80;99.90;;;;;;5049077;28;20029;-92
2023/04/10 00:19:18;;;;;;;14.45;9.35;;;8.70;99.90;;;;;;5051043;28;20031;-92
2023/04/10 00:21:43;;;;;;;14.65;9.00;;;8.70;99.90;;;;;;5055035;28;20043;-92
2023/04/10 00:24:09;;;;;;;12.65;8.18;;;8.70;99.90;;;;;;5053944;28;20048;-91
2023/04/10 00:26:35;;;;;;;14.52;9.00;;;8.70;99.90;;;;;;5053517;28;20124;-91
2023/04/10 00:29:01;;;;;;;12.77;8.65;;;8.70;99.90;;;;;;5054593;28;20457;-91
2023/04/10 00:31:27;;;;;;;13.73;8.35;;;8.80;99.90;;;;;;5049031;28;20048;-92
2023/04/10 00:33:52;;;;;;;12.65;8.00;;;8.80;99.90;;;;;;5053509;28;20013;-91
2023/04/10 00:36:18;;;;;;;12.35;8.65;;;8.70;99.90;;;;;;5051460;28;20032;-91
2023/04/10 00:38:44;;;;;;;12.75;7.97;;;8.80;99.90;;;;;;5053690;28;20439;-90
2023/04/10 00:41:09;;;;;;;12.48;7.55;;;8.80;99.90;;;;;;5043080;28;20030;-91
2023/04/10 00:43:35;;;;;;;12.32;7.88;;;8.70;99.90;;;;;;5047759;28;20484;-91
2023/04/10 00:46:01;;;;;;;12.73;8.43;;;8.70;99.90;;;;;;5047190;28;20048;-90
2023/04/10 00:48:26;;;;;;;11.27;7.30;;;8.80;99.90;;;;;;5045950;28;20029;-91
2023/04/10 00:50:52;;;;;;;12.27;7.65;;;8.80;99.90;;;;;;5049318;28;20036;-91
2023/04/10 00:53:18;;;;;;;11.10;7.63;;;8.70;99.90;;;;;;5052128;28;20465;-91
2023/04/10 00:55:44;;;;;;;11.07;7.40;;;8.70;99.90;;;;;;5051976;28;20040;-91
2023/04/10 00:58:13;;;;;;;12.07;7.55;;;8.70;99.90;;;;;;5051939;28;20051;-90
2023/04/10 01:00:40;;;;;;;14.30;8.18;;;8.70;99.90;;;;;;5048304;28;20090;-90
2023/04/10 01:03:10;;;;;;;12.90;7.85;;;8.60;99.90;;;;;;5052223;28;20127;-90
2023/04/10 01:05:43;;;;;;;11.95;7.28;;;8.60;99.90;;;;;;5032594;28;20053;-91
2023/04/10 01:08:20;;;;;;;14.32;8.38;;;8.50;99.90;;;;;;5050513;28;20147;-91
2023/04/10 01:10:57;;;;;;;11.63;7.32;;;8.50;99.90;;;;;;5053397;28;20028;-90
2023/04/10 01:13:51;;;;;;;12.00;7.47;;;8.40;99.90;;;;;;5051056;28;20040;-91
2023/04/10 01:16:23;;;;;;;14.52;8.38;;;8.40;99.90;;;;;;5052758;28;20035;-91
2023/04/10 01:18:52;;;;;;;12.35;8.02;;;8.30;99.90;;;;;;5051663;28;20028;-91
2023/04/10 01:21:19;;;;;;;14.40;8.65;;;8.30;99.90;;;;;;5036858;28;20040;-91
2023/04/10 01:24:22;;;;;;;15.68;8.93;;;8.30;99.90;;;;;;5052821;28;20051;-90
2023/04/10 01:26:54;;;;;;;13.50;8.55;;;8.30;99.90;;;;;;4999903;28;20049;-92
2023/04/10 01:29:21;;;;;;;14.50;8.27;;;8.20;99.90;;;;;;5052338;28;20028;-91
2023/04/10 01:31:54;;;;;;;11.93;7.50;;;8.20;99.90;;;;;;5048868;28;20069;-90
2023/04/10 01:34:30;;;;;;;14.10;8.18;;;8.20;99.90;;;;;;5047989;28;20029;-92
2023/04/10 01:37:02;;;;;;;14.07;9.00;;;8.20;99.90;;;;;;5051680;28;20469;-93
2023/04/10 01:39:29;;;;;;;;;;;8.20;99.90;;;;;;5050526;28;20091;-90
2023/04/10 01:41:57;;;;;;;14.65;9.00;;;8.20;99.90;;;;;;5052559;28;20342;-91
2023/04/10 01:44:26;;;;;;;14.63;8.90;;;8.20;99.90;;;;;;5053328;28;20017;-91
2023/04/10 01:46:53;;;;;;;14.70;9.25;;;8.20;99.90;;;;;;5051699;28;20516;-91
2023/04/10 01:49:20;;;;;;;19.48;9.50;;;8.20;99.90;;;;;;5049090;28;20017;-92
2023/04/10 01:51:47;;;;;;;14.68;9.20;;;8.20;99.90;;;;;;5052628;28;20109;-91
2023/04/10 01:54:13;;;;;;;17.23;9.60;;;8.20;99.90;;;;;;5035515;28;20022;-90
2023/04/10 01:56:40;;;;;;;15.13;10.13;;;8.20;99.90;;;;;;5050242;28;20500;-91
2023/04/10 01:59:06;;;;;;;16.13;10.15;;;8.10;99.90;;;;;;5051497;28;20060;-90
2023/04/10 02:01:31;;;;;;;15.98;9.60;;;8.10;99.90;;;;;;5051636;28;20037;-91
2023/04/10 02:03:58;;;;;;;16.48;9.27;;;8.10;99.90;;;;;;5051740;28;20029;-91
2023/04/10 02:06:45;;;;;;;15.93;9.48;;;8.00;99.90;;;;;;5051076;28;20111;-91
2023/04/10 02:09:30;;;;;;;16.65;9.73;;;8.10;99.90;;;;;;5053305;28;20025;-91
2023/04/10 02:12:08;;;;;;;15.93;9.40;;;8.00;99.90;;;;;;5051242;28;20045;-92
2023/04/10 02:14:37;;;;;;;13.73;9.00;;;8.00;99.90;;;;;;5051009;28;20028;-91
2023/04/10 02:17:03;;;;;;;16.40;9.77;;;8.00;99.90;;;;;;5056355;28;20080;-91
2023/04/10 02:19:30;;;;;;;12.35;8.43;;;7.90;99.90;;;;;;5054220;28;20056;-90
2023/04/10 02:21:57;;;;;;;14.63;9.48;;;7.90;99.90;;;;;;5056290;28;20033;-91
2023/04/10 02:24:23;;;;;;;14.18;9.63;;;7.90;99.90;;;;;;5054325;28;20025;-91
2023/04/10 02:26:51;;;;;;;15.00;8.95;;;7.90;99.90;;;;;;5054356;28;20036;-91
2023/04/10 02:29:17;;;;;;;14.15;8.98;;;7.80;99.90;;;;;;5050742;28;20071;-92
2023/04/10 02:31:45;;;;;;;11.63;7.90;;;7.80;99.90;;;;;;5056433;28;20043;-91
2023/04/10 02:34:10;;;;;;;13.23;8.60;;;7.80;99.90;;;;;;5052086;28;20389;-91
2023/04/10 02:36:38;;;;;;;14.23;8.93;;;7.80;99.90;;;;;;5055612;28;20025;-92
2023/04/10 02:39:04;;;;;;;14.48;9.23;;;7.80;99.90;;;;;;5055391;28;20036;-91
2023/04/10 02:41:29;;;;;;;13.25;8.73;;;7.80;99.90;;;;;;5054635;28;20029;-92
2023/04/10 02:43:55;;;;;;;12.70;8.60;;;7.80;99.90;;;;;;5054939;28;20398;-91
2023/04/10 02:46:21;;;;;;;14.88;8.63;;;7.80;99.90;;;;;;5053733;28;20060;-91
2023/04/10 02:48:46;;;;;;;13.27;8.57;;;7.70;99.90;;;;;;5054803;28;20074;-91
2023/04/10 02:51:12;;;;;;;17.63;9.27;;;7.70;99.90;;;;;;5052179;28;20028;-91
2023/04/10 02:53:38;;;;;;;13.98;8.38;;;7.80;99.90;;;;;;5053822;28;20025;-91
2023/04/10 02:56:05;;;;;;;13.60;8.45;;;7.80;99.90;;;;;;5051675;28;20025;-91
2023/04/10 02:58:31;;;;;;;14.50;8.30;;;7.80;99.90;;;;;;5054163;28;20029;-90
2023/04/10 03:00:57;;;;;;;15.38;8.88;;;7.70;99.90;;;;;;5049588;28;20089;-91
2023/04/10 03:03:22;;;;;;;13.98;8.38;;;7.70;99.90;;;;;;5053851;28;20029;-91
2023/04/10 03:05:48;;;;;;;13.10;8.68;;;7.70;99.90;;;;;;5053647;28;20033;-91
2023/04/10 03:08:15;;;;;;;13.20;7.78;;;7.70;99.90;;;;;;5054282;28;20070;-91
2023/04/10 03:10:47;;;;;;;12.40;7.93;;;7.70;99.90;;;;;;5049899;28;20078;-91
2023/04/10 03:13:13;;;;;;;12.90;8.43;;;7.70;99.90;;;;;;5054217;28;20021;-91
2023/04/10 03:15:39;;;;;;;13.73;8.40;;;7.70;99.90;;;;;;5053859;28;20037;-91
2023/04/10 03:18:05;;;;;;;14.65;8.98;;;7.70;99.90;;;;;;5052958;28;20029;-91
2023/04/10 03:20:32;;;;;;;12.32;8.13;;;7.60;99.90;;;;;;5053798;28;20123;-90
2023/04/10 03:22:58;;;;;;;12.75;8.25;;;7.60;99.90;;;;;;5054927;28;20079;-91
2023/04/10 03:25:24;;;;;;;14.93;8.15;;;7.60;99.90;;;;;;5053750;28;20035;-91
2023/04/10 03:27:49;;;;;;;13.23;8.18;;;7.60;99.90;;;;;;5059944;28;20025;-91
2023/04/10 03:30:15;;;;;;;14.82;8.18;;;7.60;99.90;;;;;;5054891;28;20469;-91
2023/04/10 03:32:42;;;;;;;13.60;8.60;;;7.50;99.90;;;;;;5055241;28;20050;-91
2023/04/10 03:35:08;;;;;;;13.82;8.50;;;7.50;99.90;;;;;;5054445;28;20056;-91
2023/04/10 03:37:34;;;;;;;13.98;8.88;;;7.50;99.90;;;;;;5054245;28;20048;-91
2023/04/10 03:40:00;;;;;;;14.32;7.75;;;7.40;99.90;;;;;;5054193;28;20056;-90
2023/04/10 03:42:25;;;;;;;13.98;8.43;;;7.40;99.90;;;;;;5054245;28;20025;-91
2023/04/10 03:44:51;;;;;;;15.68;9.20;;;7.40;99.90;;;;;;5054604;28;20033;-91
2023/04/10 03:47:17;;;;;;;13.23;8.80;;;7.40;99.90;;;;;;5053797;28;20048;-91
2023/04/10 03:49:42;;;;;;;15.23;8.75;;;7.30;99.90;;;;;;5054021;28;20040;-90
2023/04/10 03:52:08;;;;;;;15.25;9.15;;;7.30;99.90;;;;;;5054079;28;20116;-91
2023/04/10 03:54:33;;;;;;;14.13;8.85;;;7.30;99.90;;;;;;5054037;28;20040;-91
2023/04/10 03:57:00;;;;;;;15.90;9.27;;;7.20;99.90;;;;;;5040710;28;20040;-91
2023/04/10 03:59:25;;;;;;;14.43;8.98;;;7.20;99.90;;;;;;5049682;28;20509;-90
2023/04/10 04:01:52;;;;;;;16.15;9.75;;;7.20;99.90;;;;;;5052940;28;20028;-91
2023/04/10 04:04:17;;;;;;;14.07;9.10;;;7.20;99.90;;;;;;5053051;28;20426;-91
2023/04/10 04:06:43;;;;;;;14.05;8.95;;;7.20;99.90;;;;;;5053027;28;20051;-91
2023/04/10 04:09:09;;;;;;;16.38;10.05;;;7.20;99.90;;;;;;5053988;28;20029;-91
2023/04/10 04:11:34;;;;;;;14.05;9.30;;;7.20;99.90;;;;;;5054339;28;20031;-90
2023/04/10 04:14:00;;;;;;;17.38;9.93;;;7.10;99.90;;;;;;5054252;28;20018;-90
2023/04/10 04:16:26;;;;;;;15.63;9.48;;;7.10;99.90;;;;;;5053062;28;20025;-91
2023/04/10 04:18:51;;;;;;;13.60;8.73;;;7.00;99.90;;;;;;5053730;28;20465;-91
2023/04/10 04:21:17;;;;;;;15.48;9.40;;;7.00;99.90;;;;;;5053524;28;20422;-91
2023/04/10 04:23:43;;;;;;;15.88;9.65;;;7.00;99.90;;;;;;5046567;28;20036;-91
2023/04/10 04:26:08;;;;;;;15.98;9.68;;;7.00;99.90;;;;;;5053011;28;20029;-89
2023/04/10 04:28:34;;;;;;;15.88;9.50;;;7.00;99.90;;;;;;5052831;28;20036;-91
2023/04/10 04:31:00;;;;;;;19.63;9.90;;;6.90;99.90;;;;;;5053505;28;20021;-90
2023/04/10 04:33:25;;;;;;;15.70;9.57;;;6.90;99.90;;;;;;5053296;28;20037;-91
2023/04/10 04:35:51;;;;;;;16.70;9.23;;;6.90;99.90;;;;;;5050577;28;20108;-90
2023/04/10 04:38:18;;;;;;;16.33;9.80;;;6.90;99.90;;;;;;5045551;28;20396;-90
2023/04/10 04:40:44;;;;;;;16.40;9.43;;;6.90;99.90;;;;;;5049967;28;20026;-92
2023/04/10 04:43:10;;;;;;;15.82;9.70;;;6.90;99.90;;;;;;5045042;28;20508;-89
2023/04/10 04:45:36;;;;;;;16.40;9.20;;;6.90;99.90;;;;;;5050758;28;20053;-91
2023/04/10 04:48:01;;;;;;;14.73;8.93;;;6.90;99.90;;;;;;5052612;28;20028;-91
2023/04/10 04:50:27;;;;;;;15.48;8.95;;;6.90;99.90;;;;;;5051670;28;20028;-91
2023/04/10 04:52:52;;;;;;;16.42;9.15;;;6.90;99.90;;;;;;5048499;28;20041;-90
2023/04/10 04:55:18;;;;;;;17.15;8.60;;;6.90;99.90;;;;;;5049749;28;20031;-90
2023/04/10 04:57:43;;;;;;;16.05;8.35;;;7.00;99.90;;;;;;5049265;28;20111;-92
2023/04/10 05:00:09;;;;;;;18.42;9.27;;;7.00;99.90;;;;;;5042926;28;20041;-92
2023/04/10 05:02:35;;;;;;;14.88;9.30;;;7.00;99.90;;;;;;5061641;28;20028;-91
2023/04/10 05:05:00;;;;;;;15.60;8.80;;;7.00;99.90;;;;;;5048518;28;20035;-90
2023/04/10 05:07:26;;;;;;;15.30;9.60;;;7.00;99.90;;;;;;5043889;28;20040;-90
2023/04/10 05:09:52;;;;;;;15.45;8.75;;;7.00;99.90;;;;;;5047242;28;20088;-90
2023/04/10 05:12:17;;;;;;;14.40;8.77;;;7.10;99.90;;;;;;5042030;28;20461;-91
2023/04/10 05:14:44;;;;;;;16.05;9.85;;;7.10;99.90;;;;;;5044736;28;20029;-90
2023/04/10 05:17:10;;;;;;;13.77;9.18;;;7.10;99.90;;;;;;5045018;28;20021;-91
2023/04/10 05:19:36;;;;;;;15.68;9.60;;;7.20;99.90;;;;;;5047975;28;20033;-90
2023/04/10 05:22:01;;;;;;;15.93;9.13;;;7.20;99.90;;;;;;5045222;28;20021;-91
2023/04/10 05:24:27;;;;;;;15.45;9.93;;;7.20;99.90;;;;;;5042137;28;20471;-91
2023/04/10 05:26:52;;;;;;;15.77;9.70;;;7.20;99.90;;;;;;5041120;28;20044;-90
2023/04/10 05:29:18;;;;;;;13.45;8.65;;;7.30;99.90;;;;;;5043580;28;20033;-91
2023/04/10 05:31:43;;;;;;;13.63;8.77;;;7.30;99.90;;;;;;5044477;28;20026;-91
2023/04/10 05:34:09;;;;;;;17.75;9.77;;;7.30;99.90;;;;;;5043617;28;20015;-89
2023/04/10 05:36:35;;;;;;;15.30;9.30;;;7.30;99.90;;;;;;5044490;28;20024;-91
2023/04/10 05:39:01;;;;;;;16.45;9.60;;;7.40;99.90;;;;;;5045032;28;20021;-92
2023/04/10 05:41:26;;;;;;;14.73;9.35;;;7.40;99.90;;;;;;5038894;28;20032;-92
2023/04/10 05:43:52;;;;;;;13.57;8.90;;;7.50;99.90;;;;;;5042404;28;20029;-91
2023/04/10 05:46:17;;;;;;;16.20;9.77;;;7.50;99.90;;;;;;5044589;28;20055;-91
2023/04/10 05:48:43;;;;;;;15.50;9.20;;;7.60;99.90;;;;;;5046253;28;20052;-91
2023/04/10 05:51:08;;;;;;;15.25;9.80;;;7.60;99.90;;;;;;5045241;28;20047;-91
2023/04/10 05:53:34;;;;;;;15.18;9.60;;;7.70;99.90;;;;;;5045287;28;20078;-91
2023/04/10 05:56:00;;;;;;;14.80;8.95;;;7.70;99.90;;;;;;5045805;28;20021;-92
2023/04/10 05:58:27;;;;;;;14.68;9.07;;;7.80;99.90;;;;;;5043334;28;20032;-91
2023/04/10 06:00:52;;;;;;;14.35;8.88;;;7.90;99.90;;;;;;5045270;28;20044;-91
2023/04/10 06:03:18;;;;;;;14.73;9.02;;;8.00;99.90;;;;;;5046455;28;20039;-92
2023/04/10 06:05:44;;;;;;;14.20;9.23;;;8.00;99.90;;;;;;5045820;28;20044;-90
2023/04/10 06:08:10;;;;;;;15.15;9.35;;;8.10;99.90;;;;;;5046498;28;20029;-90
2023/04/10 06:10:35;;;;;;;15.20;8.80;;;8.10;99.90;;;;;;5048789;28;20033;-91
2023/04/10 06:13:01;;;;;;;15.68;9.20;;;8.30;99.90;;;;;;5045290;28;20021;-91
2023/04/10 06:15:27;;;;;;;15.32;9.48;;;8.30;99.90;;;;;;5042889;28;20025;-91
2023/04/10 06:17:53;;;;;;;14.55;9.57;;;8.40;99.90;;;;;;5047270;28;20029;-89
2023/04/10 06:20:18;;;;;;;15.02;9.73;;;8.50;99.90;;;;;;5044935;28;20529;-90
2023/04/10 06:22:44;;;;;;;13.20;8.48;;;8.50;99.90;;;;;;5038932;28;20408;-92
2023/04/10 06:25:10;;;;;;;12.73;8.90;;;8.60;99.90;;;;;;5042545;28;20021;-91
2023/04/10 06:27:36;;;;;;;17.85;10.00;;;8.70;99.90;;;;;;5042343;28;20048;-91
2023/04/10 06:30:02;;;;;;;12.82;8.82;;;8.70;99.90;;;;;;5044296;28;20025;-91
2023/04/10 06:32:27;;;;;;;13.60;9.05;;;8.80;99.90;;;;;;5043396;28;20025;-91
2023/04/10 06:34:53;;;;;;;14.25;8.73;;;8.90;99.90;;;;;;5040389;28;20057;-90
2023/04/10 06:37:18;;;;;;;13.57;9.10;;;8.90;99.90;;;;;;5046903;28;20040;-90
2023/04/10 06:39:44;;;;;;;12.90;8.57;;;9.00;99.90;;;;;;5039457;28;20067;-90
2023/04/10 06:42:09;;;;;;;14.77;9.25;;;9.00;99.90;;;;;;5046098;28;20029;-91
2023/04/10 06:44:35;;;;;;;13.38;9.52;;;9.10;99.90;;;;;;5049067;28;20043;-90
2023/04/10 06:47:01;;;;;;;16.52;9.82;;;9.20;99.90;;;;;;5052355;28;20124;-91
2023/04/10 06:49:26;;;;;;;14.23;9.30;;;9.20;99.90;;;;;;5051599;28;20057;-89
2023/04/10 06:51:52;;;;;;;14.02;8.32;;;9.30;99.90;;;;;;5048732;28;20028;-90
2023/04/10 06:54:17;;;;;;;13.27;8.93;;;9.40;99.90;;;;;;5053105;28;20380;-90
2023/04/10 06:56:43;;;;;;;13.73;9.00;;;9.50;99.90;;;;;;5055808;28;20413;-90
2023/04/10 06:59:08;;;;;;;14.38;9.30;;;9.50;99.90;;;;;;5050287;28;20378;-90
2023/04/10 07:01:34;;;;;;;14.18;8.68;;;9.60;99.90;;;;;;5053314;28;20029;-91
2023/04/10 07:04:00;;;;;;;13.13;8.88;;;9.70;99.90;;;;;;5043008;28;20029;-92
2023/04/10 07:06:26;;;;;;;14.30;9.02;;;9.70;99.90;;;;;;5052291;28;20381;-92
2023/04/10 07:08:51;;;;;;;11.88;8.48;;;9.80;99.90;;;;;;5054514;28;20504;-91
2023/04/10 07:11:17;;;;;;;17.67;9.88;;;9.90;99.90;;;;;;5050003;28;20033;-91
2023/04/10 07:13:42;;;;;;;12.23;8.73;;;9.80;99.90;;;;;;5048971;28;20059;-91
2023/04/10 07:16:09;;;;;;;14.20;9.23;;;9.90;99.90;;;;;;5049918;28;20025;-91
2023/04/10 07:18:37;;;;;;;13.38;9.07;;;10.00;99.90;;;;;;5046108;28;20084;-91
2023/04/10 07:21:09;;;;;;;14.00;9.35;;;10.10;99.90;;;;;;5052060;28;20112;-90
2023/04/10 07:23:35;;;;;;;14.15;9.38;;;10.10;99.90;;;;;;5051040;28;20517;-91
2023/04/10 07:26:00;;;;;;;11.82;7.95;;;10.20;99.90;;;;;;5050700;28;20072;-92
2023/04/10 07:28:26;;;;;;;17.02;9.80;;;10.20;99.90;;;;;;5054070;28;20021;-92
2023/04/10 07:30:51;;;;;;;11.60;7.75;;;10.30;99.90;;;;;;5050457;28;20025;-91
2023/04/10 07:33:17;;;;;;;14.45;9.27;;;10.40;99.90;;;;;;5053203;28;20113;-92
2023/04/10 07:35:42;;;;;;;13.85;9.13;;;10.50;99.90;;;;;;5055779;28;20037;-92
2023/04/10 07:38:10;;;;;;;15.40;9.52;;;10.60;99.90;;;;;;5046913;28;20021;-91
2023/04/10 07:40:35;;;;;;;12.85;9.30;;;10.70;99.90;;;;;;5049798;28;20030;-92
2023/04/10 07:43:01;;;;;;;14.18;9.80;;;10.70;99.90;;;;;;5056140;28;20067;-90
2023/04/10 07:45:27;;;;;;;13.55;9.10;;;10.80;99.90;;;;;;5053085;28;20060;-90
2023/04/10 07:47:52;;;;;;;13.05;9.63;;;10.90;99.90;;;;;;5054486;28;20029;-90
2023/04/10 07:50:18;;;;;;;14.77;9.35;;;11.00;99.90;;;;;;5055410;28;20045;-92
2023/04/10 07:52:44;;;;;;;12.32;8.52;;;11.10;99.90;;;;;;5052622;28;20024;-92
2023/04/10 07:55:09;;;;;;;11.20;8.57;;;11.20;99.90;;;;;;5052386;28;20017;-91
2023/04/10 07:57:35;;;;;;;11.18;7.82;;;11.30;99.90;;;;;;5061091;28;20048;-91
2023/04/10 08:00:00;;;;;;;14.30;9.15;;;11.40;99.90;;;;;;5053135;28;20484;-91
2023/04/10 08:02:26;;;;;;;11.63;8.13;;;11.60;99.90;;;;;;5052665;28;20032;-91
2023/04/10 08:04:51;;;;;;;12.13;8.35;;;11.80;99.90;;;;;;5053371;28;20067;-91
2023/04/10 08:07:22;;;;;;;11.93;8.98;;;12.00;99.90;;;;;;5053576;28;20108;-91
2023/04/10 08:09:48;;;;;;;11.02;7.93;;;12.20;99.90;;;;;;5054216;28;20160;-90
2023/04/10 08:12:13;;;;;;;12.32;8.88;;;12.40;99.90;;;;;;5051622;28;20044;-90
2023/04/10 08:14:39;;;;;;;14.15;7.85;;;12.50;99.90;;;;;;5049000;28;20128;-88
2023/04/10 08:17:04;;;;;;;10.60;7.90;;;12.70;99.90;;;;;;5048883;28;20025;-89
2023/04/10 08:19:30;;;;;;;9.95;7.47;;;12.90;99.90;;;;;;5052261;28;20071;-90
2023/04/10 08:21:55;;;;;;;9.80;7.35;;;13.00;99.90;;;;;;5053523;28;20039;-91
2023/04/10 08:24:21;;;;;;;10.88;7.85;;;13.10;99.90;;;;;;5051041;28;20376;-90
2023/04/10 08:26:47;;;;;;;10.90;7.65;;;13.20;99.90;;;;;;5046148;28;20037;-90
2023/04/10 08:29:13;;;;;;;9.20;7.22;;;13.20;99.90;;;;;;5051343;28;20025;-89
2023/04/10 08:31:38;;;;;;;9.25;6.40;;;13.20;99.90;;;;;;5054228;28;20091;-89
2023/04/10 08:34:04;;;;;;;10.27;6.55;;;13.30;99.90;;;;;;5049771;28;20016;-89
2023/04/10 08:36:30;;;;;;;8.15;6.07;;;13.30;99.90;;;;;;5048209;28;20025;-90
2023/04/10 08:38:56;;;;;;;9.35;6.72;;;13.30;99.90;;;;;;5049407;28;20031;-91
2023/04/10 08:41:21;;;;;;;8.85;6.20;;;13.40;99.90;;;;;;5049494;28;20033;-91
2023/04/10 08:43:48;;;;;;;8.55;6.15;;;13.50;99.90;;;;;;5052910;28;20025;-91
2023/04/10 08:46:14;;;;;;;8.20;6.00;;;13.50;99.90;;;;;;5050861;28;20036;-91
2023/04/10 08:49:03;;;;;;;7.85;6.05;;;13.60;99.30;;;;;;5051299;28;20032;-90
2023/04/10 08:51:40;;;;;;;8.93;6.47;;;13.70;98.90;;;;;;5049178;28;20115;-91
2023/04/10 08:54:09;;;;;;;7.45;6.40;;;13.70;98.70;;;;;;5046606;28;20032;-91
2023/04/10 08:56:36;;;;;;;12.80;6.30;;;13.90;98.20;;;;;;5049490;28;20028;-91
2023/04/10 08:59:02;;;;;;;8.00;6.15;;;14.00;98.10;;;;;;5055330;28;20049;-91
2023/04/10 09:01:28;;;;;;;7.55;5.90;;;14.10;98.00;;;;;;5049343;28;20401;-90
2023/04/10 09:03:54;;;;;;;7.57;6.28;;;14.20;97.40;;;;;;5044777;28;20017;-91
2023/04/10 09:06:19;;;;;;;8.70;5.18;;;14.20;96.60;;;;;;5048011;28;20449;-90
2023/04/10 09:08:45;;;;;;;11.43;6.28;;;14.10;96.30;;;;;;5053312;28;20495;-90
2023/04/10 09:11:12;;;;;;;10.80;6.32;;;14.10;96.00;;;;;;5049928;28;20393;-90
2023/04/10 09:13:42;;;;;;;7.40;5.53;;;14.10;95.90;;;;;;5050461;28;20025;-90
2023/04/10 09:16:10;;;;;;;9.63;6.63;;;14.10;96.10;;;;;;5046482;28;20025;-89
2023/04/10 09:18:47;;;;;;;12.05;5.88;;;14.20;95.90;;;;;;5049550;28;20020;-92
2023/04/10 09:21:16;;;;;;;7.75;5.68;;;14.30;95.70;;;;;;5048349;28;20025;-92
2023/04/10 09:23:43;;;;;;;7.38;5.18;;;14.30;95.40;;;;;;5038573;28;20028;-91
2023/04/10 09:26:23;;;;;;;7.50;5.55;;;14.40;95.20;;;;;;5065561;28;20036;-91
2023/04/10 09:28:55;;;;;;;7.75;5.85;;;14.40;95.10;;;;;;5052928;28;20081;-91
2023/04/10 09:31:37;;;;;;;;;;;14.40;94.50;;;;;;5048681;28;20023;-90
2023/04/10 09:34:22;;;;;;;7.70;5.53;;;14.30;94.50;;;;;;5055086;28;19947;-92
2023/04/10 09:36:56;;;;;;;8.25;6.03;;;14.30;94.80;;;;;;5053935;28;20041;-91
2023/04/10 09:39:33;;;;;;;8.90;5.97;;;14.40;94.50;;;;;;5052897;28;20116;-91
2023/04/10 09:41:58;;;;;;;7.28;5.53;;;14.40;94.90;;;;;;5053292;28;20043;-92
2023/04/10 09:44:32;;;;;;;11.18;5.80;;;14.40;94.50;;;;;;5049962;28;20028;-90
2023/04/10 09:47:13;;;;;;;8.50;5.60;;;14.50;94.70;;;;;;5051512;28;20063;-91
2023/04/10 09:49:51;;;;;;;7.55;5.38;;;14.60;94.50;;;;;;5047430;28;20049;-91
2023/04/10 09:52:24;;;;;;;6.38;5.07;;;14.60;94.30;;;;;;5051151;28;20033;-90
2023/04/10 09:54:50;;;;;;;7.15;5.05;;;14.60;94.40;;;;;;5052491;28;20021;-90
2023/04/10 09:57:20;;;;;;;6.55;5.18;;;14.60;94.40;;;;;;5053598;28;20029;-91
2023/04/10 09:59:49;;;;;;;7.88;5.15;;;14.70;94.20;;;;;;5053886;28;20107;-91
2023/04/10 10:02:16;;;;;;;5.93;4.63;;;14.80;94.50;;;;;;5056963;28;20043;-91
2023/04/10 10:04:44;;;;;;;7.13;5.03;;;14.80;94.40;;;;;;5054714;28;20025;-91
2023/04/10 10:07:10;;;;;;;6.55;4.68;;;14.90;94.10;;;;;;5050943;28;20037;-90
2023/04/10 10:09:36;;;;;;;6.20;5.10;;;15.00;94.50;;;;;;5052752;28;20151;-89
2023/04/10 10:12:03;;;;;;;7.10;5.35;;;15.00;93.50;;;;;;5046796;28;20119;-89
2023/04/10 10:14:30;;;;;;;6.38;5.22;;;15.10;93.90;;;;;;5044558;28;20029;-89
2023/04/10 10:17:04;;;;;;;7.32;4.40;;;15.20;93.50;;;;;;5052599;28;20029;-89
2023/04/10 10:19:39;;;;;;;5.93;4.45;;;15.30;93.50;;;;;;5049987;28;20025;-88
2023/04/10 10:22:07;;;;;;;5.68;4.50;;;15.30;93.30;;;;;;5054902;28;20420;-89
2023/04/10 10:24:35;;;;;;;5.88;4.82;;;15.40;93.10;;;;;;5052629;28;20025;-89
2023/04/10 10:27:02;;;;;;;6.47;4.65;;;15.50;93.00;;;;;;5054904;28;20032;-90
2023/04/10 10:29:31;;;;;;;7.15;5.68;;;15.50;92.80;;;;;;5054833;28;20645;-90
2023/04/10 10:32:01;;;;;;;7.20;5.25;;;15.50;92.20;;;;;;5058625;28;20078;-90
2023/04/10 10:34:27;;;;;;;6.22;5.00;;;15.50;92.30;;;;;;5056137;28;20041;-89
2023/04/10 10:36:53;;;;;;;6.55;5.05;;;15.60;92.00;;;;;;5052255;28;20025;-89
2023/04/10 10:39:21;;;;;;;7.97;5.35;;;15.60;92.20;;;;;;5052808;28;20025;-90
2023/04/10 10:42:04;;;;;;;6.40;4.60;;;15.70;92.30;;;;;;5057718;28;20021;-90
2023/04/10 10:44:36;;;;;;;;;;;15.80;92.40;;;;;;5056302;28;20028;-91
2023/04/10 10:47:22;;;;;;;8.05;4.43;;;15.90;92.60;;;;;;5045009;28;19921;-89
2023/04/10 10:49:52;;;;;;;6.03;4.75;;;16.00;91.90;;;;;;5051316;28;20040;-90
2023/04/10 10:52:40;;;;;;;5.90;4.47;;;16.00;91.40;;;;;;5054198;28;20029;-90
2023/04/10 10:55:35;;;;;;;7.35;4.78;;;16.00;91.30;;;;;;5051127;28;20057;-89
2023/04/10 10:58:04;;;;;;;6.25;4.53;;;16.20;91.70;;;;;;5044304;28;20075;-89
2023/04/10 11:00:51;;;;;;;5.80;5.05;;;16.20;91.70;;;;;;5036982;28;21891;-89
2023/04/10 11:03:16;;;;;;;5.75;4.40;;;16.40;91.60;;;;;;5035387;28;20389;-89
2023/04/10 11:06:01;;;;;;;6.25;4.53;;;16.40;91.00;;;;;;5046693;28;20021;-88
2023/04/10 11:08:51;;;;;;;8.38;4.50;;;16.40;91.00;;;;;;5040117;28;20040;-90
2023/04/10 11:11:26;;;;;;;7.22;5.05;;;16.50;91.50;;;;;;5036731;28;20022;-89
2023/04/10 11:13:57;;;;;;;8.02;5.05;;;16.60;91.10;;;;;;5050990;28;20021;-89
2023/04/10 11:16:40;;;;;;;5.32;4.57;;;16.70;91.10;;;;;;5039379;28;20391;-89
2023/04/10 11:19:07;;;;;;;5.93;4.60;;;16.70;91.00;;;;;;5055273;28;20033;-89
2023/04/10 11:21:34;;;;;;;5.47;4.35;;;16.80;90.80;;;;;;5054690;28;20017;-89
2023/04/10 11:23:59;;;;;;;5.95;4.00;;;16.90;90.60;;;;;;5056478;28;20039;-89
2023/04/10 11:26:34;;;;;;;5.55;3.75;;;16.90;90.30;;;;;;5056415;28;20127;-88
2023/04/10 11:29:05;;;;;;;5.85;4.75;;;17.00;90.20;;;;;;5056296;28;20198;-89
2023/04/10 11:31:32;;;;;;;6.45;3.90;;;17.00;89.80;;;;;;5056518;28;20017;-89
2023/04/10 11:34:05;;;;;;;5.20;3.75;;;17.10;89.60;;;;;;5050316;28;20044;-89
2023/04/10 11:36:32;;;;;;;4.88;3.95;;;17.10;89.40;;;;;;5054937;28;20048;-89
2023/04/10 11:39:04;;;;;;;4.25;3.35;;;17.20;89.40;;;;;;5051642;28;20037;-89
2023/04/10 11:41:41;;;;;;;7.07;3.22;;;17.30;88.50;;;;;;5057338;28;20025;-89
2023/04/10 11:44:11;;;;;;;4.15;3.20;;;17.30;87.80;;;;;;5057234;28;20055;-89
2023/04/10 11:46:43;;;;;;;3.92;2.97;;;17.40;87.80;;;;;;5056107;28;20040;-89
2023/04/10 11:49:09;;;;;;;3.72;2.60;;;17.40;86.20;;;;;;5055349;28;20021;-88
2023/04/10 11:51:36;;;;;;;5.85;2.90;;;17.40;85.50;;;;;;5057355;28;20029;-87
2023/04/10 11:54:08;;;;;;;7.80;2.53;;;17.50;85.60;;;;;;5055374;28;20481;-88
2023/04/10 11:56:35;;;;;;;4.20;2.65;;;17.50;85.80;;;;;;5041741;28;20028;-87
2023/04/10 11:59:01;;;;;;;2.95;2.20;;;17.60;84.50;;;;;;5055601;28;20052;-87
2023/04/10 12:01:27;;;;;;;3.53;2.42;;;17.60;84.80;;;;;;5051813;28;20075;-88
2023/04/10 12:03:53;;;;;;;8.13;2.83;;;17.60;84.10;;;;;;5056048;28;20021;-88
2023/04/10 12:06:19;;;;;;;3.20;2.17;;;17.60;84.70;;;;;;5054483;28;20492;-88
2023/04/10 12:08:49;;;;;;;3.58;2.53;;;17.60;84.20;;;;;;5055343;28;20024;-88
2023/04/10 12:11:19;;;;;;;2.95;2.20;;;17.70;83.30;;;;;;5055057;28;20397;-87
2023/04/10 12:13:45;;;;;;;3.72;2.08;;;17.80;83.70;;;;;;5056111;28;20031;-87
2023/04/10 12:16:11;;;;;;;3.10;1.95;;;17.80;83.50;;;;;;5054659;28;20039;-88
2023/04/10 12:18:37;;;;;;;2.38;1.30;;;17.80;83.90;;;;;;5057063;28;20029;-87
2023/04/10 12:21:03;;;;;;;3.50;1.80;;;17.90;84.40;;;;;;5054476;28;20044;-87
2023/04/10 12:23:30;;;;;;;4.97;2.05;;;18.00;83.10;;;;;;5053882;28;20054;-89
2023/04/10 12:26:10;;;;;;;2.33;1.50;;;18.00;82.30;;;;;;5055489;28;20037;-88
2023/04/10 12:28:37;;;;;;;2.65;1.52;;;18.10;82.20;;;;;;5056302;28;20029;-89
2023/04/10 12:31:03;;;;;;;3.33;2.17;;;18.30;82.00;;;;;;5055644;28;20121;-88
2023/04/10 12:33:28;;;;;;;2.90;1.73;;;18.30;80.80;;;;;;5051306;28;20636;-89
2023/04/10 12:35:54;;;;;;;2.15;1.30;;;18.30;80.40;;;;;;5051163;28;20477;-88
2023/04/10 12:38:43;;;;;;;2.47;1.60;;;18.30;81.20;;;;;;5053984;28;20025;-89
2023/04/10 12:41:10;;;;;;;2.00;1.42;;;18.30;80.50;;;;;;5039136;28;20022;-89
2023/04/10 12:43:41;;;;;;;2.75;1.55;;;18.30;80.00;;;;;;5056780;28;20112;-89
2023/04/10 12:46:08;;;;;;;3.88;1.42;;;18.10;79.50;;;;;;5057926;28;20036;-89
2023/04/10 12:48:34;;;;;;;2.65;1.55;;;18.00;79.70;;;;;;5056571;28;20112;-89
2023/04/10 12:51:00;;;;;;;2.67;1.45;;;17.90;79.60;;;;;;5054509;28;20509;-88